createdAt,value
2022-10-26T00:03:35.186Z,100.00
2022-10-26T00:09:37.085Z,100.00
2022-10-26T00:15:42.873Z,100.00
2022-10-26T00:21:44.809Z,100.00
2022-10-26T00:27:46.939Z,100.00
2022-10-26T00:33:56.511Z,100.00
2022-10-26T00:39:58.362Z,100.00
2022-10-26T00:46:01.736Z,100.00
2022-10-26T00:52:04.311Z,100.00
2022-10-26T00:58:08.750Z,100.00
2022-10-26T01:04:12.527Z,100.00
2022-10-26T01:10:15.174Z,100.00
2022-10-26T01:16:48.338Z,100.00
2022-10-26T01:23:26.286Z,100.00
2022-10-26T01:29:59.678Z,100.00
2022-10-26T01:36:16.912Z,100.00
2022-10-26T01:42:21.703Z,100.00
2022-10-26T01:48:25.918Z,100.00
2022-10-26T01:54:28.749Z,100.00
2022-10-26T02:00:34.544Z,100.00
2022-10-26T02:07:04.124Z,100.00
2022-10-26T02:13:33.857Z,100.00
2022-10-26T02:19:45.658Z,100.00
2022-10-26T02:25:54.151Z,100.00
2022-10-26T02:31:57.210Z,100.00
2022-10-26T02:38:03.241Z,100.00
2022-10-26T02:44:16.736Z,100.00
2022-10-26T02:50:24.048Z,100.00
2022-10-26T02:57:04.888Z,100.00
2022-10-26T03:03:06.924Z,100.00
2022-10-26T03:09:08.794Z,100.00
2022-10-26T03:15:10.944Z,100.00
2022-10-26T03:21:12.827Z,100.00
2022-10-26T03:27:15.524Z,100.00
2022-10-26T03:33:17.582Z,100.00
2022-10-26T03:45:44.050Z,100.00
2022-10-26T03:51:45.973Z,100.00
2022-10-26T03:57:48.090Z,100.00
2022-10-26T04:03:50.092Z,100.00
2022-10-26T04:09:52.197Z,100.00
2022-10-26T04:15:54.159Z,100.00
2022-10-26T04:21:56.173Z,100.00
2022-10-26T04:27:58.509Z,100.00
2022-10-26T04:34:00.497Z,100.00
2022-10-26T04:40:03.468Z,100.00
2022-10-26T04:46:05.626Z,100.00
2022-10-26T04:52:07.689Z,100.00
2022-10-26T04:58:09.585Z,100.00
2022-10-26T05:04:11.719Z,100.00
2022-10-26T05:10:13.958Z,100.00
2022-10-26T05:16:15.842Z,100.00
2022-10-26T05:22:17.778Z,100.00
2022-10-26T05:28:19.751Z,100.00
2022-10-26T05:34:21.659Z,100.00
2022-10-26T05:40:24.030Z,100.00
2022-10-26T05:47:09.708Z,100.00
2022-10-26T05:53:12.025Z,100.00
2022-10-26T05:59:18.993Z,100.00
2022-10-26T06:05:27.729Z,100.00
2022-10-26T06:11:30.163Z,100.00
2022-10-26T06:18:09.998Z,100.00
2022-10-26T06:24:56.858Z,100.00
2022-10-26T06:30:58.917Z,100.00
2022-10-26T06:37:02.417Z,100.00
2022-10-26T06:43:30.165Z,100.00
2022-10-26T06:49:34.685Z,100.00
2022-10-26T06:55:45.463Z,100.00
2022-10-26T07:01:47.519Z,100.00
2022-10-26T07:07:50.031Z,100.00
2022-10-26T07:13:52.172Z,100.00
2022-10-26T07:19:54.956Z,100.00
2022-10-26T07:26:00.398Z,100.00
2022-10-26T07:32:02.475Z,100.00
2022-10-26T07:38:05.045Z,100.00
2022-10-26T07:44:08.345Z,100.00
2022-10-26T07:50:12.114Z,100.00
2022-10-26T07:56:14.364Z,99.63
2022-10-26T08:02:16.322Z,100.00
2022-10-26T08:09:21.013Z,100.00
2022-10-26T08:15:22.907Z,96.65
2022-10-26T08:21:36.194Z,97.56
2022-10-26T08:27:41.330Z,96.38
2022-10-26T08:48:12.152Z,91.20
2022-10-26T08:54:44.352Z,89.07
2022-10-26T09:00:50.116Z,91.24
2022-10-26T09:07:36.789Z,87.94
2022-10-26T09:14:15.619Z,87.64
2022-10-26T09:27:44.336Z,84.73
2022-10-26T09:34:29.755Z,83.86
2022-10-26T09:41:00.096Z,84.74
2022-10-26T09:47:31.199Z,84.11
2022-10-26T09:53:33.625Z,87.23
2022-10-26T10:00:01.730Z,88.27
2022-10-26T10:06:25.731Z,89.53
2022-10-26T10:12:27.755Z,90.53
2022-10-26T10:18:30.091Z,91.29
2022-10-26T10:31:22.285Z,90.86
2022-10-26T10:37:46.035Z,89.46
2022-10-26T10:43:55.540Z,84.49
2022-10-26T10:50:07.419Z,86.14
2022-10-26T10:56:12.105Z,85.83
2022-10-26T11:02:59.551Z,84.52
2022-10-26T11:09:21.558Z,82.19
2022-10-26T11:28:40.541Z,76.54
2022-10-26T11:35:43.869Z,77.11
2022-10-26T11:41:47.319Z,75.48
2022-10-26T11:48:21.102Z,74.89
2022-10-26T11:54:59.078Z,72.34
2022-10-26T12:01:12.076Z,73.67
2022-10-26T12:21:20.356Z,75.68
2022-10-26T12:27:40.364Z,77.09
2022-10-26T12:33:51.967Z,77.54
2022-10-26T12:40:04.314Z,73.96
2022-10-26T12:46:15.537Z,75.86
2022-10-26T12:59:36.138Z,74.63
2022-10-26T13:05:43.761Z,76.56
2022-10-26T13:11:53.674Z,76.17
2022-10-26T13:18:12.377Z,73.27
2022-10-26T13:24:15.025Z,68.54
2022-10-26T13:30:37.254Z,61.26
2022-10-26T13:36:56.701Z,63.02
2022-10-26T13:43:04.373Z,65.54
2022-10-26T13:49:42.164Z,68.04
2022-10-26T13:56:04.657Z,70.79
2022-10-26T14:02:45.480Z,71.80
2022-10-26T14:08:50.567Z,73.41
2022-10-26T14:14:53.692Z,75.05
2022-10-26T14:21:20.285Z,76.02
2022-10-26T14:27:26.405Z,75.68
2022-10-26T14:33:29.263Z,75.60
2022-10-26T14:39:44.132Z,77.25
2022-10-26T14:45:50.533Z,79.10
2022-10-26T14:52:06.642Z,79.17
2022-10-26T14:58:36.906Z,81.35
2022-10-26T15:05:17.470Z,83.05
2022-10-26T15:11:19.495Z,84.57
2022-10-26T15:17:32.135Z,85.86
2022-10-26T15:23:39.263Z,86.30
2022-10-26T15:29:46.285Z,86.46
2022-10-26T15:35:48.174Z,87.82
2022-10-26T15:41:52.369Z,88.80
2022-10-26T15:47:57.556Z,89.72
2022-10-26T16:00:17.439Z,92.02
2022-10-26T16:06:34.666Z,94.25
2022-10-26T16:13:01.911Z,95.13
2022-10-26T16:19:30.259Z,97.43
2022-10-26T16:25:58.698Z,98.79
2022-10-26T16:32:00.673Z,97.48
2022-10-26T16:38:02.724Z,99.04
2022-10-26T16:44:13.130Z,98.61
2022-10-26T16:50:15.707Z,99.41
2022-10-26T16:56:22.399Z,100.00
2022-10-26T17:02:24.845Z,100.00
2022-10-26T17:08:28.147Z,100.00
2022-10-26T17:14:37.200Z,100.00
2022-10-26T17:20:41.520Z,100.00
2022-10-26T17:26:43.806Z,100.00
2022-10-26T17:32:46.767Z,100.00
2022-10-26T17:38:51.894Z,100.00
2022-10-26T17:45:00.009Z,100.00
2022-10-26T17:51:05.990Z,100.00
2022-10-26T17:57:08.139Z,100.00
2022-10-26T18:03:10.096Z,100.00
2022-10-26T18:09:12.023Z,100.00
2022-10-26T18:15:15.062Z,100.00
2022-10-26T18:21:22.059Z,100.00
2022-10-26T18:27:24.894Z,100.00
2022-10-26T18:33:27.092Z,100.00
2022-10-26T18:39:29.124Z,100.00
2022-10-26T18:45:36.008Z,100.00
2022-10-26T18:51:40.739Z,100.00
2022-10-26T18:57:42.664Z,100.00
2022-10-26T19:03:45.815Z,100.00
2022-10-26T19:09:47.751Z,100.00
2022-10-26T19:16:12.696Z,100.00
2022-10-26T19:22:23.727Z,100.00
2022-10-26T19:28:25.668Z,100.00
2022-10-26T19:34:27.668Z,100.00
2022-10-26T19:40:29.683Z,100.00
2022-10-26T19:46:34.501Z,100.00
2022-10-26T19:52:36.527Z,100.00
2022-10-26T19:58:38.994Z,100.00
2022-10-26T20:04:40.930Z,100.00
2022-10-26T20:10:54.753Z,100.00
2022-10-26T20:16:56.652Z,100.00
2022-10-26T20:22:58.714Z,100.00
2022-10-26T20:29:02.474Z,100.00
2022-10-26T20:35:05.012Z,100.00
2022-10-26T20:41:12.261Z,100.00
2022-10-26T20:47:14.662Z,100.00
2022-10-26T20:53:40.209Z,100.00
2022-10-26T20:59:50.277Z,100.00
2022-10-26T21:05:52.560Z,100.00
2022-10-26T21:18:04.411Z,100.00
2022-10-26T21:31:03.704Z,100.00
2022-10-26T21:37:10.107Z,100.00
2022-10-26T21:43:12.913Z,100.00
2022-10-26T21:49:14.783Z,100.00
2022-10-26T21:55:17.214Z,100.00
2022-10-26T22:01:29.440Z,100.00
2022-10-26T22:07:31.589Z,100.00
2022-10-26T22:13:33.570Z,100.00
2022-10-26T22:19:35.721Z,100.00
2022-10-26T22:25:37.615Z,100.00
2022-10-26T22:31:40.815Z,100.00
2022-10-26T22:37:45.862Z,100.00
2022-10-26T22:43:48.004Z,100.00
2022-10-26T22:49:49.924Z,100.00
2022-10-26T22:55:51.847Z,100.00
2022-10-26T23:01:53.970Z,100.00
2022-10-26T23:07:56.092Z,100.00
2022-10-26T23:14:00.953Z,100.00
2022-10-26T23:20:02.875Z,100.00
2022-10-26T23:26:14.451Z,100.00
2022-10-26T23:32:16.439Z,100.00
2022-10-26T23:38:18.886Z,100.00
2022-10-26T23:44:20.780Z,100.00
2022-10-26T23:50:22.713Z,100.00
2022-10-26T23:56:24.926Z,100.00
